KMGE/MGE METAR and TAF weather

Enter ICAO airport designator
Station Type Date Time Source
KMGE METAR 2019/10/22 16:56 UTC NOAA

KMGE 221656Z 30008G17KT 10SM SCT250 20/09 A2999 RMK AO2A SLP150 T02030086 $


Station Type Date Time Source
KMGE Decoded METAR 2019/10/22 16:56 UTC NOAA

Marietta / Dobbins Air Force Base, GA, United States (KMGE) 33-55N 084-31W 326M
Oct 22, 2019 - 12:56 PM EDT / 2019.10.22 1656 UTC
Wind: from the WNW (300 degrees) at 9 MPH (8 KT) gusting to 20 MPH (17 KT):0
Visibility: 10 mile(s):0
Sky conditions: partly cloudy
Temperature: 68.5 F (20.3 C)
Dew Point: 47.5 F (8.6 C)
Relative Humidity: 46%
Pressure (altimeter): 29.99 in. Hg (1015 hPa)
ob: KMGE 221656Z 30008G17KT 10SM SCT250 20/09 A2999 RMK AO2A SLP150 T02030086
cycle: 17

Station Type Date Time Source
KMGE TAF 2019/10/22 13:15 UTC NOAA

TAF KMGE 221300Z 2213/2319 30012KT 8000 BR BKN019 QNH2995INS
BECMG 2213/2214 30012KT 9999 NSW SCT020 BKN080 BKN250 QNH2995INS
BECMG 2216/2217 30015G25KT 9999 FEW040 FEW250 QNH2995INS
BECMG 2223/2224 29009KT 9999 SKC QNH3000INS WND 30007KT AFT 2302 TX20/2220Z TN05/2312Z

Example: see airport list